createdAt,value
2023-01-13T00:01:23.501Z,5.70
2023-01-13T00:03:50.603Z,3.85
2023-01-13T00:06:19.658Z,5.93
2023-01-13T00:08:49.891Z,5.68
2023-01-13T00:11:16.516Z,7.00
2023-01-13T00:13:43.079Z,4.90
2023-01-13T00:16:18.118Z,6.07
2023-01-13T00:18:45.193Z,5.93
2023-01-13T00:21:14.313Z,6.30
2023-01-13T00:23:40.885Z,5.15
2023-01-13T00:26:10.357Z,5.18
2023-01-13T00:28:37.200Z,4.80
2023-01-13T00:31:10.963Z,5.97
2023-01-13T00:33:37.859Z,5.10
2023-01-13T00:36:06.209Z,4.80
2023-01-13T00:38:34.520Z,5.68
2023-01-13T00:41:08.748Z,4.93
2023-01-13T00:43:36.402Z,6.45
2023-01-13T00:46:04.482Z,7.43
2023-01-13T00:48:32.430Z,5.05
2023-01-13T00:51:05.555Z,6.15
2023-01-13T00:53:41.071Z,5.30
2023-01-13T00:56:18.060Z,5.43
2023-01-13T00:58:46.035Z,6.35
2023-01-13T01:01:16.381Z,5.53
2023-01-13T01:03:43.119Z,6.22
2023-01-13T01:06:13.408Z,5.78
2023-01-13T01:08:40.346Z,5.68
2023-01-13T01:11:09.156Z,6.20
2023-01-13T01:13:36.456Z,5.53
2023-01-13T01:16:13.952Z,5.63
2023-01-13T01:18:43.140Z,6.03
2023-01-13T01:21:10.465Z,6.25
2023-01-13T01:23:38.466Z,8.55
2023-01-13T01:26:11.669Z,6.82
2023-01-13T01:28:38.549Z,8.18
2023-01-13T01:31:17.887Z,6.00
2023-01-13T01:33:46.352Z,6.00
2023-01-13T01:36:14.205Z,8.48
2023-01-13T01:38:40.825Z,7.85
2023-01-13T01:41:07.480Z,7.13
2023-01-13T01:44:00.510Z,7.65
2023-01-13T01:46:35.379Z,6.60
2023-01-13T01:49:14.062Z,6.68
2023-01-13T01:52:14.624Z,8.05
2023-01-13T01:54:48.210Z,5.47
2023-01-13T01:57:24.437Z,6.53
2023-01-13T01:59:51.074Z,4.93
2023-01-13T02:02:17.997Z,8.13
2023-01-13T02:04:50.940Z,8.10
2023-01-13T02:07:26.249Z,5.88
2023-01-13T02:09:55.176Z,5.40
2023-01-13T02:12:31.939Z,8.25
2023-01-13T02:15:12.411Z,5.72
2023-01-13T02:18:17.787Z,5.60
2023-01-13T02:20:56.219Z,6.63
2023-01-13T02:23:40.966Z,6.38
2023-01-13T02:26:10.006Z,6.40
2023-01-13T02:29:43.532Z,7.75
2023-01-13T02:32:33.474Z,6.55
2023-01-13T02:35:18.223Z,6.75
2023-01-13T02:37:46.025Z,7.05
2023-01-13T02:40:21.435Z,5.63
2023-01-13T02:43:51.833Z,7.57
2023-01-13T02:46:29.822Z,7.47
2023-01-13T02:48:59.861Z,6.82
2023-01-13T02:51:32.339Z,5.70
2023-01-13T02:54:02.072Z,7.80
2023-01-13T02:56:30.224Z,7.20
2023-01-13T02:58:58.642Z,6.38
2023-01-13T03:01:25.240Z,6.65
2023-01-13T03:03:51.735Z,7.47
2023-01-13T03:07:01.898Z,8.02
2023-01-13T03:09:43.560Z,7.03
2023-01-13T03:12:26.677Z,6.47
2023-01-13T03:15:19.019Z,8.05
2023-01-13T03:18:05.920Z,7.43
2023-01-13T03:20:41.198Z,6.38
2023-01-13T03:23:17.911Z,6.22
2023-01-13T03:25:57.179Z,5.68
2023-01-13T03:28:31.080Z,5.63
2023-01-13T03:31:04.747Z,6.53
2023-01-13T03:33:37.326Z,6.05
2023-01-13T03:36:07.973Z,6.03
2023-01-13T03:38:39.195Z,6.97
2023-01-13T03:41:10.505Z,5.87
2023-01-13T03:44:00.164Z,7.60
2023-01-13T03:46:42.349Z,5.80
2023-01-13T03:49:13.168Z,7.88
2023-01-13T03:51:43.885Z,5.60
2023-01-13T03:54:12.668Z,5.80
2023-01-13T03:56:47.384Z,7.32
2023-01-13T03:59:22.508Z,6.53
2023-01-13T04:01:57.160Z,5.90
2023-01-13T04:04:28.970Z,6.63
2023-01-13T04:07:05.286Z,5.65
2023-01-13T04:09:34.453Z,4.80
2023-01-13T04:12:11.212Z,6.93
2023-01-13T04:14:37.910Z,5.38
2023-01-13T04:17:05.127Z,5.72
2023-01-13T04:19:32.982Z,5.22
2023-01-13T04:21:59.607Z,4.22
2023-01-13T04:24:26.255Z,5.72
2023-01-13T04:26:52.670Z,4.18
2023-01-13T04:29:19.120Z,4.45
2023-01-13T04:31:45.506Z,4.35
2023-01-13T04:34:12.039Z,3.40
2023-01-13T04:36:38.634Z,4.22
2023-01-13T04:39:05.155Z,6.43
2023-01-13T04:41:54.353Z,3.80
2023-01-13T04:44:20.678Z,3.63
2023-01-13T04:46:47.302Z,3.75
2023-01-13T04:49:13.899Z,4.38
2023-01-13T04:51:40.275Z,3.08
2023-01-13T04:54:09.445Z,4.88
2023-01-13T04:56:35.832Z,4.18
2023-01-13T04:59:02.247Z,3.08
2023-01-13T05:01:28.682Z,2.25
2023-01-13T05:03:55.104Z,3.53
2023-01-13T05:06:23.942Z,3.60
2023-01-13T05:08:53.402Z,2.40
2023-01-13T05:11:38.515Z,2.83
2023-01-13T05:14:23.247Z,3.03
2023-01-13T05:17:04.528Z,3.22
2023-01-13T05:19:41.774Z,2.58
2023-01-13T05:22:26.453Z,3.33
2023-01-13T05:25:11.267Z,3.45
2023-01-13T05:27:37.813Z,2.97
2023-01-13T05:30:05.393Z,3.60
2023-01-13T05:32:33.415Z,3.88
2023-01-13T05:34:59.800Z,2.50
2023-01-13T05:37:27.632Z,3.25
2023-01-13T05:40:12.922Z,3.50
2023-01-13T05:42:57.785Z,3.42
2023-01-13T05:45:24.464Z,3.42
2023-01-13T05:47:50.838Z,3.83
2023-01-13T05:50:17.542Z,3.83
2023-01-13T05:52:44.480Z,3.40
2023-01-13T05:55:11.740Z,3.05
2023-01-13T05:57:38.254Z,3.95
2023-01-13T06:00:05.728Z,3.42
2023-01-13T06:02:32.339Z,3.33
2023-01-13T06:04:58.808Z,3.10
2023-01-13T06:07:25.249Z,4.10
2023-01-13T06:09:51.708Z,3.45
2023-01-13T06:12:19.395Z,3.75
2023-01-13T06:14:45.835Z,4.20
2023-01-13T06:17:14.327Z,4.07
2023-01-13T06:19:41.434Z,4.43
2023-01-13T06:22:22.955Z,5.35
2023-01-13T06:24:50.697Z,3.55
2023-01-13T06:27:18.407Z,2.88
2023-01-13T06:29:44.857Z,4.63
2023-01-13T06:32:18.759Z,3.78
2023-01-13T06:34:49.580Z,4.13
2023-01-13T06:37:19.818Z,4.97
2023-01-13T06:39:46.426Z,3.47
2023-01-13T06:42:31.580Z,3.47
2023-01-13T06:44:58.086Z,4.50
2023-01-13T06:47:24.545Z,4.15
2023-01-13T06:49:51.128Z,3.60
2023-01-13T06:52:17.493Z,4.05
2023-01-13T06:54:46.770Z,3.63
2023-01-13T06:57:13.428Z,4.35
2023-01-13T06:59:39.871Z,4.65
2023-01-13T07:02:08.963Z,5.15
2023-01-13T07:04:35.402Z,4.05
2023-01-13T07:07:01.900Z,4.65
2023-01-13T07:09:28.371Z,2.83
2023-01-13T07:11:54.915Z,4.15
2023-01-13T07:14:40.042Z,4.30
2023-01-13T07:17:06.504Z,3.40
2023-01-13T07:19:32.993Z,5.00
2023-01-13T07:22:02.450Z,4.53
2023-01-13T07:24:28.950Z,4.60
2023-01-13T07:26:55.461Z,4.22
2023-01-13T07:29:21.855Z,4.38
2023-01-13T07:31:50.106Z,4.35
2023-01-13T07:34:16.812Z,3.70
2023-01-13T07:36:43.187Z,4.22
2023-01-13T07:39:09.693Z,5.28
2023-01-13T07:41:54.765Z,3.90
2023-01-13T07:44:21.369Z,4.07
2023-01-13T07:46:48.002Z,4.85
2023-01-13T07:49:14.450Z,4.80
2023-01-13T07:51:40.932Z,4.72
2023-01-13T07:54:07.360Z,4.70
2023-01-13T07:56:33.929Z,3.13
2023-01-13T07:59:00.843Z,3.63
2023-01-13T08:01:28.032Z,4.15
2023-01-13T08:03:56.213Z,4.90
2023-01-13T08:06:22.715Z,4.25
2023-01-13T08:08:49.134Z,5.38
2023-01-13T08:11:15.631Z,4.82
2023-01-13T08:13:42.072Z,4.85
2023-01-13T08:16:11.866Z,4.38
2023-01-13T08:18:38.617Z,5.82
2023-01-13T08:21:08.343Z,4.50
2023-01-13T08:23:35.590Z,4.53
2023-01-13T08:26:06.700Z,4.50
2023-01-13T08:28:33.138Z,3.78
2023-01-13T08:31:01.749Z,4.70
2023-01-13T08:33:28.961Z,3.95
2023-01-13T08:35:56.169Z,4.30
2023-01-13T08:38:23.429Z,3.30
2023-01-13T08:40:50.477Z,4.40
2023-01-13T08:43:17.021Z,5.82
2023-01-13T08:45:43.479Z,4.32
2023-01-13T08:48:10.200Z,5.90
2023-01-13T08:50:36.689Z,4.25
2023-01-13T08:53:03.443Z,3.88
2023-01-13T08:55:29.909Z,4.68
2023-01-13T08:58:14.160Z,3.92
2023-01-13T09:00:42.190Z,5.60
2023-01-13T09:03:08.650Z,3.90
2023-01-13T09:05:35.990Z,4.22
2023-01-13T09:08:02.433Z,4.85
2023-01-13T09:10:28.802Z,6.18
2023-01-13T09:13:13.628Z,5.28
2023-01-13T09:15:42.529Z,5.97
2023-01-13T09:18:09.553Z,4.72
2023-01-13T09:20:36.045Z,5.00
2023-01-13T09:23:02.977Z,4.70
2023-01-13T09:25:29.443Z,4.63
2023-01-13T09:27:56.725Z,3.72
2023-01-13T09:30:23.448Z,3.95
2023-01-13T09:32:49.877Z,4.63
2023-01-13T09:35:18.857Z,5.22
2023-01-13T09:37:45.289Z,5.60
2023-01-13T09:40:22.843Z,5.15
2023-01-13T09:43:13.324Z,3.83
2023-01-13T09:45:56.166Z,4.72
2023-01-13T09:48:51.738Z,4.07
2023-01-13T09:51:28.001Z,4.43
2023-01-13T09:53:59.341Z,5.40
2023-01-13T09:56:26.338Z,3.60
2023-01-13T09:58:52.795Z,4.47
2023-01-13T10:01:33.548Z,4.45
2023-01-13T10:04:04.772Z,4.90
2023-01-13T10:06:39.382Z,3.80
2023-01-13T10:09:06.140Z,4.68
2023-01-13T10:11:58.716Z,5.80
2023-01-13T10:17:04.226Z,4.65
2023-01-13T10:19:59.828Z,3.90
2023-01-13T10:23:07.494Z,5.18
2023-01-13T10:26:15.365Z,3.63
2023-01-13T10:28:41.764Z,4.40
2023-01-13T10:31:14.741Z,3.50
2023-01-13T10:33:41.207Z,4.20
2023-01-13T10:36:16.793Z,3.30
2023-01-13T10:38:48.426Z,6.07
2023-01-13T10:41:15.014Z,4.63
2023-01-13T10:43:45.438Z,3.53
2023-01-13T10:46:19.460Z,3.72
2023-01-13T10:48:58.781Z,3.22
2023-01-13T10:51:29.780Z,3.97
2023-01-13T10:54:20.246Z,3.70
2023-01-13T10:56:46.910Z,3.03
2023-01-13T10:59:24.630Z,3.33
2023-01-13T11:02:25.396Z,3.42
2023-01-13T11:04:55.377Z,3.63
2023-01-13T11:07:35.824Z,3.30
2023-01-13T11:10:23.021Z,3.13
2023-01-13T11:12:58.275Z,3.25
2023-01-13T11:15:38.461Z,2.95
2023-01-13T11:18:23.041Z,3.38
2023-01-13T11:20:51.628Z,3.85
2023-01-13T11:23:28.389Z,3.42
2023-01-13T11:26:01.293Z,4.13
2023-01-13T11:28:56.036Z,3.08
2023-01-13T11:31:34.778Z,3.67
2023-01-13T11:34:18.153Z,2.70
2023-01-13T11:36:50.987Z,3.63
2023-01-13T11:39:59.014Z,5.05
2023-01-13T11:42:40.366Z,4.20
2023-01-13T11:45:31.368Z,4.07
2023-01-13T11:48:01.611Z,3.33
2023-01-13T11:50:42.248Z,3.75
2023-01-13T11:53:22.481Z,3.05
2023-01-13T11:56:24.173Z,4.78
2023-01-13T11:58:58.093Z,3.20
2023-01-13T12:01:37.280Z,3.90
2023-01-13T12:04:25.272Z,3.28
2023-01-13T12:07:16.651Z,3.47
2023-01-13T12:10:13.195Z,3.28
2023-01-13T12:12:58.303Z,3.22
2023-01-13T12:15:36.586Z,3.13
2023-01-13T12:18:15.051Z,3.97
2023-01-13T12:21:00.011Z,3.47
2023-01-13T12:23:35.082Z,2.45
2023-01-13T12:26:07.883Z,2.33
2023-01-13T12:29:04.776Z,2.97
2023-01-13T12:31:36.631Z,2.78
2023-01-13T12:34:22.278Z,2.88
2023-01-13T12:37:17.277Z,2.78
2023-01-13T12:40:05.396Z,3.55
2023-01-13T12:43:09.207Z,3.50
2023-01-13T12:45:35.734Z,2.90
2023-01-13T12:48:02.214Z,3.78
2023-01-13T12:50:29.099Z,3.88
2023-01-13T12:52:57.672Z,2.88
2023-01-13T12:55:25.940Z,3.78
2023-01-13T12:58:02.454Z,3.45
2023-01-13T13:00:52.978Z,2.97
2023-01-13T13:03:28.052Z,3.78
2023-01-13T13:06:06.111Z,2.60
2023-01-13T13:09:10.549Z,2.97
2023-01-13T13:11:59.191Z,1.50
2023-01-13T13:14:37.723Z,2.60
2023-01-13T13:17:25.286Z,2.53
2023-01-13T13:19:52.371Z,2.17
2023-01-13T13:22:50.487Z,2.78
2023-01-13T13:25:22.505Z,2.60
2023-01-13T13:28:15.719Z,2.05
2023-01-13T13:30:52.261Z,3.42
2023-01-13T13:33:43.018Z,2.25
2023-01-13T13:36:09.423Z,2.60
2023-01-13T13:39:29.297Z,2.88
2023-01-13T13:42:23.102Z,2.60
2023-01-13T13:45:09.437Z,2.30
2023-01-13T13:47:39.444Z,2.33
2023-01-13T13:50:16.080Z,2.72
2023-01-13T13:53:18.307Z,2.50
2023-01-13T13:56:02.038Z,3.35
2023-01-13T13:58:31.341Z,2.30
2023-01-13T14:00:58.445Z,2.78
2023-01-13T14:03:28.852Z,3.50
2023-01-13T14:06:01.358Z,3.97
2023-01-13T14:08:29.898Z,3.85
2023-01-13T14:10:56.598Z,2.10
2023-01-13T14:13:27.533Z,3.72
2023-01-13T14:15:59.619Z,3.90
2023-01-13T14:20:55.067Z,3.10
2023-01-13T14:23:28.259Z,2.55
2023-01-13T14:25:55.885Z,2.70
2023-01-13T14:28:33.902Z,2.83
2023-01-13T14:31:01.301Z,3.17
2023-01-13T14:33:41.080Z,3.10
2023-01-13T14:36:13.716Z,1.73
2023-01-13T14:38:40.760Z,3.47
2023-01-13T14:41:28.348Z,2.67
2023-01-13T14:43:59.191Z,3.00
2023-01-13T14:46:39.573Z,3.13
2023-01-13T14:49:32.130Z,3.13
2023-01-13T14:55:10.097Z,3.38
2023-01-13T14:57:41.586Z,3.47
2023-01-13T15:00:20.575Z,3.10
2023-01-13T15:02:47.158Z,2.70
2023-01-13T15:05:19.741Z,2.30
2023-01-13T15:08:05.170Z,3.78
2023-01-13T15:10:41.585Z,2.55
2023-01-13T15:13:24.206Z,3.38
2023-01-13T15:15:55.785Z,2.97
2023-01-13T15:18:22.465Z,2.05
2023-01-13T15:20:50.782Z,3.75
2023-01-13T15:23:18.582Z,3.70
2023-01-13T15:25:46.017Z,2.80
2023-01-13T15:28:21.508Z,2.97
2023-01-13T15:30:51.535Z,2.28
2023-01-13T15:33:18.459Z,2.65
2023-01-13T15:35:50.196Z,2.78
2023-01-13T15:38:20.064Z,3.47
2023-01-13T15:40:47.808Z,2.75
2023-01-13T15:43:35.264Z,2.70
2023-01-13T15:46:22.493Z,2.90
2023-01-13T15:48:51.212Z,2.28
2023-01-13T15:51:21.223Z,3.45
2023-01-13T15:53:47.674Z,2.55
2023-01-13T15:56:39.073Z,2.72
2023-01-13T15:59:16.408Z,3.22
2023-01-13T16:01:43.040Z,2.97
2023-01-13T16:04:09.827Z,2.75
2023-01-13T16:06:38.167Z,2.65
2023-01-13T16:09:05.453Z,2.88
2023-01-13T16:11:32.063Z,3.42
2023-01-13T16:13:59.049Z,3.15
2023-01-13T16:16:27.853Z,3.08
2023-01-13T16:18:54.977Z,4.00
2023-01-13T16:21:24.494Z,2.55
2023-01-13T16:23:51.699Z,3.78
2023-01-13T16:26:25.003Z,2.22
2023-01-13T16:28:53.742Z,3.17
2023-01-13T16:31:31.613Z,3.20
2023-01-13T16:34:02.200Z,3.53
2023-01-13T16:36:30.476Z,3.13
2023-01-13T16:38:57.428Z,3.78
2023-01-13T16:41:24.981Z,3.45
2023-01-13T16:43:51.838Z,2.75
2023-01-13T16:46:19.835Z,2.47
2023-01-13T16:48:46.942Z,1.80
2023-01-13T16:51:13.448Z,2.65
2023-01-13T16:53:40.170Z,3.28
2023-01-13T16:56:26.963Z,3.30
2023-01-13T16:58:56.194Z,3.45
2023-01-13T17:01:29.075Z,3.03
2023-01-13T17:03:57.024Z,2.78
2023-01-13T17:06:41.545Z,2.92
2023-01-13T17:09:15.474Z,2.80
2023-01-13T17:11:41.803Z,3.33
2023-01-13T17:14:19.355Z,2.60
2023-01-13T17:16:46.373Z,2.88
2023-01-13T17:19:13.744Z,3.28
2023-01-13T17:21:40.513Z,2.45
2023-01-13T17:24:08.011Z,1.90
2023-01-13T17:26:44.100Z,2.08
2023-01-13T17:29:16.285Z,2.10
2023-01-13T17:34:11.316Z,2.05
2023-01-13T17:36:37.793Z,2.10
2023-01-13T17:39:04.344Z,1.52
2023-01-13T17:41:30.959Z,2.22
2023-01-13T17:43:57.346Z,1.50
2023-01-13T17:46:24.101Z,1.85
2023-01-13T17:48:52.737Z,1.90
2023-01-13T17:51:20.283Z,1.85
2023-01-13T17:53:46.766Z,2.75
2023-01-13T17:56:15.221Z,2.60
2023-01-13T17:58:41.939Z,2.50
2023-01-13T18:01:15.291Z,3.15
2023-01-13T18:03:41.824Z,2.42
2023-01-13T18:06:14.788Z,3.33
2023-01-13T18:08:41.245Z,3.38
2023-01-13T18:11:07.848Z,3.03
2023-01-13T18:13:35.256Z,4.28
2023-01-13T18:16:13.314Z,3.22
2023-01-13T18:18:41.721Z,2.30
2023-01-13T18:21:35.975Z,3.00
2023-01-13T18:24:21.122Z,2.50
2023-01-13T18:27:05.974Z,2.38
2023-01-13T18:29:32.432Z,3.85
2023-01-13T18:31:58.872Z,2.65
2023-01-13T18:34:25.307Z,2.78
2023-01-13T18:36:51.747Z,2.00
2023-01-13T18:39:18.377Z,1.95
2023-01-13T18:42:03.000Z,2.28
2023-01-13T18:44:29.373Z,3.05
2023-01-13T18:46:55.855Z,2.13
2023-01-13T18:49:22.463Z,1.90
2023-01-13T18:51:48.976Z,2.47
2023-01-13T18:54:15.482Z,3.85
2023-01-13T18:56:42.073Z,2.17
2023-01-13T18:59:08.489Z,2.30
2023-01-13T19:01:36.929Z,2.55
2023-01-13T19:04:10.081Z,3.75
2023-01-13T19:06:39.611Z,3.85
2023-01-13T19:09:10.965Z,3.08
2023-01-13T19:11:37.739Z,2.58
2023-01-13T19:14:04.237Z,2.13
2023-01-13T19:16:30.610Z,3.45
2023-01-13T19:18:57.023Z,1.83
2023-01-13T19:21:24.779Z,1.95
2023-01-13T19:23:56.216Z,3.47
2023-01-13T19:26:22.865Z,2.90
2023-01-13T19:28:50.363Z,2.75
2023-01-13T19:31:17.169Z,2.80
2023-01-13T19:33:43.682Z,3.03
2023-01-13T19:36:11.417Z,2.67
2023-01-13T19:38:38.211Z,1.88
2023-01-13T19:41:11.683Z,2.28
2023-01-13T19:43:56.796Z,2.13
2023-01-13T19:46:26.107Z,2.40
2023-01-13T19:48:55.217Z,2.95
2023-01-13T19:51:21.704Z,2.53
2023-01-13T19:53:48.210Z,2.53
2023-01-13T19:56:15.248Z,3.13
2023-01-13T19:58:42.136Z,2.60
2023-01-13T20:01:10.118Z,1.92
2023-01-13T20:03:37.721Z,2.55
2023-01-13T20:06:08.781Z,2.13
2023-01-13T20:08:35.218Z,1.85
2023-01-13T20:11:21.404Z,2.13
2023-01-13T20:13:49.575Z,2.08
2023-01-13T20:16:16.067Z,2.22
2023-01-13T20:18:42.495Z,2.75
2023-01-13T20:21:09.341Z,1.98
2023-01-13T20:23:35.985Z,1.98
2023-01-13T20:26:02.555Z,3.25
2023-01-13T20:28:29.145Z,2.30
2023-01-13T20:30:58.206Z,2.20
2023-01-13T20:33:24.640Z,3.08
2023-01-13T20:35:59.467Z,2.83
2023-01-13T20:38:25.922Z,1.98
2023-01-13T20:41:21.748Z,2.15
2023-01-13T20:43:57.021Z,2.63
2023-01-13T20:46:28.030Z,2.50
2023-01-13T20:48:55.027Z,2.25
2023-01-13T20:51:23.815Z,2.80
2023-01-13T20:53:50.257Z,2.47
2023-01-13T20:56:17.781Z,3.60
2023-01-13T20:58:44.162Z,3.00
2023-01-13T21:01:10.730Z,3.25
2023-01-13T21:03:37.167Z,3.35
2023-01-13T21:06:03.761Z,3.95
2023-01-13T21:08:30.221Z,3.55
2023-01-13T21:11:05.972Z,2.70
2023-01-13T21:13:50.899Z,2.63
2023-01-13T21:16:17.416Z,2.55
2023-01-13T21:19:02.266Z,2.70
2023-01-13T21:21:28.789Z,3.20
2023-01-13T21:23:55.405Z,3.20
2023-01-13T21:26:22.167Z,4.82
2023-01-13T21:28:50.099Z,4.07
2023-01-13T21:31:17.745Z,3.15
2023-01-13T21:33:44.891Z,4.00
2023-01-13T21:36:15.543Z,3.13
2023-01-13T21:38:42.290Z,4.15
2023-01-13T21:41:09.538Z,3.15
2023-01-13T21:43:56.244Z,4.13
2023-01-13T21:46:42.741Z,2.97
2023-01-13T21:49:09.574Z,2.20
2023-01-13T21:51:36.557Z,3.25
2023-01-13T21:54:02.974Z,3.45
2023-01-13T21:56:29.317Z,2.85
2023-01-13T21:58:58.672Z,3.45
2023-01-13T22:01:25.257Z,3.83
2023-01-13T22:04:10.314Z,3.40
2023-01-13T22:06:36.785Z,3.00
2023-01-13T22:09:03.338Z,3.10
2023-01-13T22:11:30.051Z,4.10
2023-01-13T22:14:06.490Z,3.58
2023-01-13T22:16:39.173Z,2.53
2023-01-13T22:19:07.407Z,2.92
2023-01-13T22:21:34.388Z,3.10
2023-01-13T22:24:01.555Z,4.22
2023-01-13T22:26:28.087Z,2.90
2023-01-13T22:28:55.236Z,3.00
2023-01-13T22:31:23.848Z,3.13
2023-01-13T22:33:56.399Z,3.35
2023-01-13T22:36:26.244Z,3.78
2023-01-13T22:38:54.773Z,2.03
2023-01-13T22:41:21.198Z,3.08
2023-01-13T22:43:47.620Z,2.60
2023-01-13T22:46:14.624Z,2.85
2023-01-13T22:48:41.280Z,2.53
2023-01-13T22:51:09.086Z,3.75
2023-01-13T22:53:36.608Z,3.08
2023-01-13T22:56:04.415Z,4.05
2023-01-13T22:58:31.068Z,3.53
2023-01-13T23:01:08.115Z,3.30
2023-01-13T23:03:34.513Z,3.42
2023-01-13T23:06:01.700Z,3.10
2023-01-13T23:08:28.162Z,2.55
2023-01-13T23:11:04.139Z,3.85
2023-01-13T23:13:31.035Z,2.53
2023-01-13T23:16:03.214Z,2.28
2023-01-13T23:20:56.141Z,2.85
2023-01-13T23:23:24.886Z,2.92
2023-01-13T23:25:53.559Z,2.95
2023-01-13T23:28:21.070Z,4.03
2023-01-13T23:30:47.976Z,4.43
2023-01-13T23:33:14.738Z,3.30
2023-01-13T23:35:41.258Z,4.70
2023-01-13T23:38:07.686Z,3.13
2023-01-13T23:40:34.987Z,3.33
2023-01-13T23:43:01.465Z,2.90
2023-01-13T23:45:27.859Z,3.42
2023-01-13T23:47:55.816Z,2.20
2023-01-13T23:50:22.378Z,2.22
2023-01-13T23:52:48.791Z,2.95
2023-01-13T23:55:15.247Z,2.55
2023-01-13T23:57:44.522Z,2.70
